This is the latest recevied weather packets stored in our database for station/object W0DP-11. If no packets are shown the sender has not sent any weather packets the latest 10 day(s).
| Time | Temp. | Humidity | Pressure | Rain* | Wind** | Luminosity | Snow |
|---|---|---|---|---|---|---|---|
| 1777260036 | 4.44° C | 92% | 1018.1 hPa | 0 mm | - | - | - |
| 1777259436 | 4.44° C | 91% | 1018.1 hPa | 0 mm | - | - | - |
| 1777246816 | 6.11° C | 86% | 1018.5 hPa | 0 mm | - | - | - |
| 1777242616 | 6.67° C | 81% | 1019.1 hPa | 0 mm | - | - | - |
| 1777238416 | 6.67° C | 82% | 1019.4 hPa | 0 mm | - | - | - |
| 1777229437 | 4.44° C | 89% | 1019.7 hPa | 0 mm | - | - | - |
| 1777228217 | 4.44° C | 88% | 1020.2 hPa | 0 mm | - | - | - |
| 1777225817 | 4.44° C | 90% | 1020.5 hPa | 0 mm | - | - | - |
| 1777218662 | 2.78° C | 94% | 1020.3 hPa | 0 mm | - | - | - |
| 1777216817 | 2.22° C | 95% | 1020.3 hPa | 0 mm | - | - | - |
| 1777215017 | 1.67° C | 95% | 1020.5 hPa | 0 mm | - | - | - |
| 1777209616 | 1.11° C | 95% | 1020.8 hPa | 1.02 mm | - | - | - |
| 1777201216 | 2.78° C | 94% | 1019.7 hPa | 3.3 mm | - | - | - |
| 1777194016 | 3.33° C | 95% | 1019.2 hPa | 0.51 mm | - | - | - |
| 1777183216 | 4.44° C | 91% | 1018.4 hPa | 0.51 mm | - | - | - |
| 1777178416 | 6.67° C | 83% | 1018.6 hPa | 0.25 mm | - | - | - |
| 1777177217 | 7.22° C | 77% | 1018.5 hPa | 0 mm | - | - | - |
| 1777176016 | 7.78° C | 70% | 1018 hPa | 0 mm | - | - | - |
| 1777174836 | 7.78° C | 69% | 1017.7 hPa | 0 mm | - | - | - |
| 1777172416 | 7.22° C | 71% | 1016.9 hPa | 0 mm | - | - | - |
| 1777171816 | 7.78° C | 68% | 1016.8 hPa | 0 mm | - | - | - |
| 1777159837 | 12.22° C | 56% | 1015.3 hPa | 0 mm | - | - | - |
| 1777153837 | 13.33° C | 48% | 1015.3 hPa | 0 mm | - | - | - |
| 1777152017 | 13.33° C | 45% | 1015.5 hPa | 0 mm | - | - | - |
| 1777150817 | 14.44° C | 42% | 1015.6 hPa | 0 mm | - | - | - |
* Rain latest hour (hover to see other rain measurements)
** Current wind speed in m/s (hover to see current wind gust speed)